sensor_id;sensor_type;location;lat;lon;timestamp;P1;durP1;ratioP1;P2;durP2;ratioP2
64022;SDS011;50264;52.088;5.296;2022-12-07T00:00:26;11.8;;;8.9;;
64022;SDS011;50264;52.088;5.296;2022-12-07T00:02:03;9.9;;;8.5;;
64022;SDS011;50264;52.088;5.296;2022-12-07T00:03:39;8.9;;;7.4;;
64022;SDS011;50264;52.088;5.296;2022-12-07T00:06:53;12.3;;;8.0;;
64022;SDS011;50264;52.088;5.296;2022-12-07T00:08:29;9.0;;;8.0;;
64022;SDS011;50264;52.088;5.296;2022-12-07T00:10:07;7.9;;;7.1;;
64022;SDS011;50264;52.088;5.296;2022-12-07T00:13:25;13.0;;;8.4;;
64022;SDS011;50264;52.088;5.296;2022-12-07T00:15:01;13.4;;;8.81;;
64022;SDS011;50264;52.088;5.296;2022-12-07T00:16:38;9.6;;;8.5;;
64022;SDS011;50264;52.088;5.296;2022-12-07T00:18:15;10.8;;;8.5;;
64022;SDS011;50264;52.088;5.296;2022-12-07T00:21:28;9.71;;;8.71;;
64022;SDS011;50264;52.088;5.296;2022-12-07T00:23:07;14.0;;;9.81;;
64022;SDS011;50264;52.088;5.296;2022-12-07T00:24:43;10.0;;;9.0;;
64022;SDS011;50264;52.088;5.296;2022-12-07T00:27:57;11.3;;;8.9;;
64022;SDS011;50264;52.088;5.296;2022-12-07T00:29:34;10.0;;;8.71;;
64022;SDS011;50264;52.088;5.296;2022-12-07T00:31:10;9.71;;;8.71;;
64022;SDS011;50264;52.088;5.296;2022-12-07T00:32:48;10.6;;;8.2;;
64022;SDS011;50264;52.088;5.296;2022-12-07T00:36:01;9.5;;;8.1;;
64022;SDS011;50264;52.088;5.296;2022-12-07T00:37:39;9.31;;;8.4;;
64022;SDS011;50264;52.088;5.296;2022-12-07T00:39:15;11.7;;;8.5;;
64022;SDS011;50264;52.088;5.296;2022-12-07T00:42:32;9.5;;;8.5;;
64022;SDS011;50264;52.088;5.296;2022-12-07T00:44:08;13.6;;;9.6;;
64022;SDS011;50264;52.088;5.296;2022-12-07T00:45:44;13.0;;;8.81;;
64022;SDS011;50264;52.088;5.296;2022-12-07T00:48:57;11.8;;;8.71;;
64022;SDS011;50264;52.088;5.296;2022-12-07T00:50:33;9.6;;;8.4;;
64022;SDS011;50264;52.088;5.296;2022-12-07T00:52:09;14.1;;;9.5;;
64022;SDS011;50264;52.088;5.296;2022-12-07T00:53:45;12.0;;;8.71;;
64022;SDS011;50264;52.088;5.296;2022-12-07T00:56:58;8.81;;;7.9;;
64022;SDS011;50264;52.088;5.296;2022-12-07T00:58:35;13.8;;;10.0;;
64022;SDS011;50264;52.088;5.296;2022-12-07T01:00:11;12.4;;;8.4;;
64022;SDS011;50264;52.088;5.296;2022-12-07T01:03:24;9.4;;;8.2;;
64022;SDS011;50264;52.088;5.296;2022-12-07T01:05:00;10.1;;;8.31;;
64022;SDS011;50264;52.088;5.296;2022-12-07T01:06:37;10.4;;;8.71;;
64022;SDS011;50264;52.088;5.296;2022-12-07T01:09:50;11.4;;;9.71;;
64022;SDS011;50264;52.088;5.296;2022-12-07T01:11:27;11.8;;;8.5;;
64022;SDS011;50264;52.088;5.296;2022-12-07T01:13:05;11.3;;;8.5;;
64022;SDS011;50264;52.088;5.296;2022-12-07T01:14:41;13.1;;;9.21;;
64022;SDS011;50264;52.088;5.296;2022-12-07T01:17:56;13.9;;;8.81;;
64022;SDS011;50264;52.088;5.296;2022-12-07T01:19:32;9.6;;;8.5;;
64022;SDS011;50264;52.088;5.296;2022-12-07T01:21:09;9.4;;;8.31;;
64022;SDS011;50264;52.088;5.296;2022-12-07T01:24:23;12.5;;;8.2;;
64022;SDS011;50264;52.088;5.296;2022-12-07T01:26:00;11.7;;;8.1;;
64022;SDS011;50264;52.088;5.296;2022-12-07T01:27:39;11.0;;;8.0;;
64022;SDS011;50264;52.088;5.296;2022-12-07T01:29:15;11.0;;;7.9;;
64022;SDS011;50264;52.088;5.296;2022-12-07T01:32:32;11.2;;;7.5;;
64022;SDS011;50264;52.088;5.296;2022-12-07T01:34:09;10.6;;;7.5;;
64022;SDS011;50264;52.088;5.296;2022-12-07T01:35:46;11.3;;;7.7;;
64022;SDS011;50264;52.088;5.296;2022-12-07T01:38:58;10.0;;;7.9;;
64022;SDS011;50264;52.088;5.296;2022-12-07T01:40:36;8.9;;;8.0;;
64022;SDS011;50264;52.088;5.296;2022-12-07T01:42:12;9.6;;;7.4;;
64022;SDS011;50264;52.088;5.296;2022-12-07T01:45:59;9.5;;;6.9;;
64022;SDS011;50264;52.088;5.296;2022-12-07T01:49:17;9.21;;;7.1;;
64022;SDS011;50264;52.088;5.296;2022-12-07T01:51:00;8.6;;;6.8;;
64022;SDS011;50264;52.088;5.296;2022-12-07T01:52:41;7.3;;;6.5;;
64022;SDS011;50264;52.088;5.296;2022-12-07T01:54:24;7.7;;;6.9;;
64022;SDS011;50264;52.088;5.296;2022-12-07T01:57:38;6.8;;;6.1;;
64022;SDS011;50264;52.088;5.296;2022-12-07T01:59:19;8.2;;;7.1;;
64022;SDS011;50264;52.088;5.296;2022-12-07T02:00:59;9.0;;;7.0;;
64022;SDS011;50264;52.088;5.296;2022-12-07T02:04:17;8.81;;;6.5;;
64022;SDS011;50264;52.088;5.296;2022-12-07T02:05:55;8.0;;;7.2;;
64022;SDS011;50264;52.088;5.296;2022-12-07T02:07:33;12.7;;;7.8;;
64022;SDS011;50264;52.088;5.296;2022-12-07T02:09:14;10.8;;;7.9;;
64022;SDS011;50264;52.088;5.296;2022-12-07T02:12:27;8.1;;;7.2;;
64022;SDS011;50264;52.088;5.296;2022-12-07T02:14:03;8.4;;;7.1;;
64022;SDS011;50264;52.088;5.296;2022-12-07T02:15:44;11.0;;;7.3;;
64022;SDS011;50264;52.088;5.296;2022-12-07T02:17:40;9.9;;;6.7;;
64022;SDS011;50264;52.088;5.296;2022-12-07T02:19:43;7.2;;;6.5;;
64022;SDS011;50264;52.088;5.296;2022-12-07T02:22:13;8.0;;;6.9;;
64022;SDS011;50264;52.088;5.296;2022-12-07T02:24:42;8.2;;;6.4;;
64022;SDS011;50264;52.088;5.296;2022-12-07T02:26:55;7.7;;;6.7;;
64022;SDS011;50264;52.088;5.296;2022-12-07T02:29:29;9.4;;;7.5;;
64022;SDS011;50264;52.088;5.296;2022-12-07T02:31:14;10.6;;;7.5;;
64022;SDS011;50264;52.088;5.296;2022-12-07T02:32:57;12.5;;;8.0;;
64022;SDS011;50264;52.088;5.296;2022-12-07T02:34:41;10.1;;;7.7;;
64022;SDS011;50264;52.088;5.296;2022-12-07T02:36:25;10.1;;;7.7;;
64022;SDS011;50264;52.088;5.296;2022-12-07T02:39:53;10.0;;;8.0;;
64022;SDS011;50264;52.088;5.296;2022-12-07T02:41:35;9.4;;;7.4;;
64022;SDS011;50264;52.088;5.296;2022-12-07T02:43:19;10.0;;;7.5;;
64022;SDS011;50264;52.088;5.296;2022-12-07T02:44:59;8.4;;;7.2;;
64022;SDS011;50264;52.088;5.296;2022-12-07T02:46:40;9.21;;;7.4;;
64022;SDS011;50264;52.088;5.296;2022-12-07T02:49:57;10.0;;;7.9;;
64022;SDS011;50264;52.088;5.296;2022-12-07T02:51:33;9.5;;;7.0;;
64022;SDS011;50264;52.088;5.296;2022-12-07T02:53:46;12.2;;;7.7;;
64022;SDS011;50264;52.088;5.296;2022-12-07T02:55:24;9.4;;;8.0;;
64022;SDS011;50264;52.088;5.296;2022-12-07T02:57:07;9.21;;;7.6;;
64022;SDS011;50264;52.088;5.296;2022-12-07T03:00:55;9.4;;;7.5;;
64022;SDS011;50264;52.088;5.296;2022-12-07T03:02:47;14.4;;;8.2;;
64022;SDS011;50264;52.088;5.296;2022-12-07T03:04:32;11.2;;;8.6;;
64022;SDS011;50264;52.088;5.296;2022-12-07T03:06:20;10.5;;;8.31;;
64022;SDS011;50264;52.088;5.296;2022-12-07T03:08:05;10.1;;;8.4;;
64022;SDS011;50264;52.088;5.296;2022-12-07T03:09:50;9.6;;;7.7;;
64022;SDS011;50264;52.088;5.296;2022-12-07T03:13:22;15.0;;;8.2;;
64022;SDS011;50264;52.088;5.296;2022-12-07T03:15:05;13.4;;;9.0;;
64022;SDS011;50264;52.088;5.296;2022-12-07T03:16:49;11.4;;;8.31;;
64022;SDS011;50264;52.088;5.296;2022-12-07T03:18:33;11.7;;;7.8;;
64022;SDS011;50264;52.088;5.296;2022-12-07T03:20:15;15.6;;;9.0;;
64022;SDS011;50264;52.088;5.296;2022-12-07T03:23:38;8.4;;;7.5;;
64022;SDS011;50264;52.088;5.296;2022-12-07T03:25:19;13.4;;;8.71;;
64022;SDS011;50264;52.088;5.296;2022-12-07T03:26:58;13.0;;;8.6;;
64022;SDS011;50264;52.088;5.296;2022-12-07T03:28:49;11.3;;;9.4;;
64022;SDS011;50264;52.088;5.296;2022-12-07T03:32:14;10.4;;;8.31;;
64022;SDS011;50264;52.088;5.296;2022-12-07T03:34:02;11.5;;;8.4;;
64022;SDS011;50264;52.088;5.296;2022-12-07T03:35:51;16.61;;;9.21;;
64022;SDS011;50264;52.088;5.296;2022-12-07T03:37:36;14.8;;;9.81;;
64022;SDS011;50264;52.088;5.296;2022-12-07T03:39:20;18.41;;;9.1;;
64022;SDS011;50264;52.088;5.296;2022-12-07T03:41:03;9.81;;;8.6;;
64022;SDS011;50264;52.088;5.296;2022-12-07T03:44:22;12.6;;;9.0;;
64022;SDS011;50264;52.088;5.296;2022-12-07T03:46:00;13.6;;;8.6;;
64022;SDS011;50264;52.088;5.296;2022-12-07T03:47:52;11.9;;;9.6;;
64022;SDS011;50264;52.088;5.296;2022-12-07T03:49:40;14.2;;;9.4;;
64022;SDS011;50264;52.088;5.296;2022-12-07T03:53:05;12.2;;;8.71;;
64022;SDS011;50264;52.088;5.296;2022-12-07T03:54:49;15.3;;;8.71;;
64022;SDS011;50264;52.088;5.296;2022-12-07T03:56:32;8.31;;;7.4;;
64022;SDS011;50264;52.088;5.296;2022-12-07T03:58:12;11.4;;;8.1;;
64022;SDS011;50264;52.088;5.296;2022-12-07T03:59:53;15.5;;;8.2;;
64022;SDS011;50264;52.088;5.296;2022-12-07T04:03:07;15.9;;;8.71;;
64022;SDS011;50264;52.088;5.296;2022-12-07T04:04:45;13.1;;;8.2;;
64022;SDS011;50264;52.088;5.296;2022-12-07T04:06:21;11.2;;;8.0;;
64022;SDS011;50264;52.088;5.296;2022-12-07T04:09:33;13.6;;;9.0;;
64022;SDS011;50264;52.088;5.296;2022-12-07T04:11:09;14.3;;;9.5;;
64022;SDS011;50264;52.088;5.296;2022-12-07T04:12:46;12.7;;;9.0;;
64022;SDS011;50264;52.088;5.296;2022-12-07T04:15:59;11.3;;;8.1;;
64022;SDS011;50264;52.088;5.296;2022-12-07T04:17:35;13.8;;;8.4;;
64022;SDS011;50264;52.088;5.296;2022-12-07T04:19:13;13.9;;;8.2;;
64022;SDS011;50264;52.088;5.296;2022-12-07T04:20:49;13.8;;;7.6;;
64022;SDS011;50264;52.088;5.296;2022-12-07T04:24:02;14.0;;;8.4;;
64022;SDS011;50264;52.088;5.296;2022-12-07T04:25:39;13.1;;;8.81;;
64022;SDS011;50264;52.088;5.296;2022-12-07T04:27:16;12.2;;;7.9;;
64022;SDS011;50264;52.088;5.296;2022-12-07T04:30:28;11.0;;;8.5;;
64022;SDS011;50264;52.088;5.296;2022-12-07T04:32:04;13.7;;;8.0;;
64022;SDS011;50264;52.088;5.296;2022-12-07T04:33:41;11.2;;;8.31;;
64022;SDS011;50264;52.088;5.296;2022-12-07T04:36:53;9.9;;;7.8;;
64022;SDS011;50264;52.088;5.296;2022-12-07T04:38:29;11.3;;;8.4;;
64022;SDS011;50264;52.088;5.296;2022-12-07T04:40:06;11.0;;;7.6;;
64022;SDS011;50264;52.088;5.296;2022-12-07T04:41:44;9.4;;;7.0;;
64022;SDS011;50264;52.088;5.296;2022-12-07T04:44:57;9.81;;;7.3;;
64022;SDS011;50264;52.088;5.296;2022-12-07T04:46:33;10.8;;;7.1;;
64022;SDS011;50264;52.088;5.296;2022-12-07T04:48:09;9.0;;;8.0;;
64022;SDS011;50264;52.088;5.296;2022-12-07T04:51:22;11.2;;;7.6;;
64022;SDS011;50264;52.088;5.296;2022-12-07T04:53:01;11.2;;;8.5;;
64022;SDS011;50264;52.088;5.296;2022-12-07T04:54:37;16.0;;;8.71;;
64022;SDS011;50264;52.088;5.296;2022-12-07T04:57:50;8.6;;;7.1;;
64022;SDS011;50264;52.088;5.296;2022-12-07T04:59:26;14.9;;;7.7;;
64022;SDS011;50264;52.088;5.296;2022-12-07T05:01:03;8.4;;;6.3;;
64022;SDS011;50264;52.088;5.296;2022-12-07T05:02:39;13.9;;;8.9;;
64022;SDS011;50264;52.088;5.296;2022-12-07T05:05:52;10.1;;;6.8;;
64022;SDS011;50264;52.088;5.296;2022-12-07T05:07:28;8.1;;;5.9;;
64022;SDS011;50264;52.088;5.296;2022-12-07T05:09:05;8.31;;;5.9;;
64022;SDS011;50264;52.088;5.296;2022-12-07T05:12:18;8.71;;;5.7;;
64022;SDS011;50264;52.088;5.296;2022-12-07T05:13:54;7.1;;;6.4;;
64022;SDS011;50264;52.088;5.296;2022-12-07T05:15:31;9.31;;;5.5;;
64022;SDS011;50264;52.088;5.296;2022-12-07T05:18:43;10.4;;;5.8;;
64022;SDS011;50264;52.088;5.296;2022-12-07T05:20:20;9.6;;;5.4;;
64022;SDS011;50264;52.088;5.296;2022-12-07T05:21:56;6.3;;;5.4;;
64022;SDS011;50264;52.088;5.296;2022-12-07T05:23:32;13.3;;;5.3;;
64022;SDS011;50264;52.088;5.296;2022-12-07T05:26:45;10.5;;;5.3;;
64022;SDS011;50264;52.088;5.296;2022-12-07T05:28:22;5.6;;;5.11;;
64022;SDS011;50264;52.088;5.296;2022-12-07T05:29:58;7.0;;;5.2;;
64022;SDS011;50264;52.088;5.296;2022-12-07T05:33:10;8.1;;;5.11;;
64022;SDS011;50264;52.088;5.296;2022-12-07T05:34:46;9.81;;;5.7;;
64022;SDS011;50264;52.088;5.296;2022-12-07T05:36:23;13.9;;;6.8;;
64022;SDS011;50264;52.088;5.296;2022-12-07T05:39:34;7.7;;;5.7;;
64022;SDS011;50264;52.088;5.296;2022-12-07T05:42:11;9.21;;;5.6;;
64022;SDS011;50264;52.088;5.296;2022-12-07T05:43:47;5.7;;;5.0;;
64022;SDS011;50264;52.088;5.296;2022-12-07T05:45:24;5.3;;;4.61;;
64022;SDS011;50264;52.088;5.296;2022-12-07T05:47:00;11.6;;;4.7;;
64022;SDS011;50264;52.088;5.296;2022-12-07T05:48:36;7.5;;;4.7;;
64022;SDS011;50264;52.088;5.296;2022-12-07T05:51:48;8.5;;;4.7;;
64022;SDS011;50264;52.088;5.296;2022-12-07T05:53:24;5.7;;;4.8;;
64022;SDS011;50264;52.088;5.296;2022-12-07T05:55:01;10.3;;;5.9;;
64022;SDS011;50264;52.088;5.296;2022-12-07T05:59:30;5.6;;;4.3;;
64022;SDS011;50264;52.088;5.296;2022-12-07T06:01:06;7.2;;;4.8;;
64022;SDS011;50264;52.088;5.296;2022-12-07T06:02:42;7.5;;;4.61;;
64022;SDS011;50264;52.088;5.296;2022-12-07T06:04:19;16.61;;;5.3;;
64022;SDS011;50264;52.088;5.296;2022-12-07T06:05:56;8.1;;;4.8;;
64022;SDS011;50264;52.088;5.296;2022-12-07T06:07:32;8.31;;;4.91;;
64022;SDS011;50264;52.088;5.296;2022-12-07T06:10:46;8.4;;;5.2;;
64022;SDS011;50264;52.088;5.296;2022-12-07T06:12:39;12.2;;;5.11;;
64022;SDS011;50264;52.088;5.296;2022-12-07T06:14:16;9.31;;;4.61;;
64022;SDS011;50264;52.088;5.296;2022-12-07T06:15:52;10.1;;;4.5;;
64022;SDS011;50264;52.088;5.296;2022-12-07T06:19:04;8.31;;;4.5;;
64022;SDS011;50264;52.088;5.296;2022-12-07T06:20:40;10.8;;;5.0;;
64022;SDS011;50264;52.088;5.296;2022-12-07T06:22:17;12.9;;;5.11;;
64022;SDS011;50264;52.088;5.296;2022-12-07T06:25:30;8.6;;;5.3;;
64022;SDS011;50264;52.088;5.296;2022-12-07T06:27:06;9.1;;;5.11;;
64022;SDS011;50264;52.088;5.296;2022-12-07T06:28:43;10.7;;;4.91;;
64022;SDS011;50264;52.088;5.296;2022-12-07T06:31:56;7.1;;;5.11;;
64022;SDS011;50264;52.088;5.296;2022-12-07T06:33:32;9.81;;;4.8;;
64022;SDS011;50264;52.088;5.296;2022-12-07T06:35:08;7.3;;;4.5;;
64022;SDS011;50264;52.088;5.296;2022-12-07T06:36:47;9.1;;;4.8;;
64022;SDS011;50264;52.088;5.296;2022-12-07T06:39:59;11.5;;;5.2;;
64022;SDS011;50264;52.088;5.296;2022-12-07T06:41:36;13.9;;;6.6;;
64022;SDS011;50264;52.088;5.296;2022-12-07T06:43:13;8.1;;;5.6;;
64022;SDS011;50264;52.088;5.296;2022-12-07T06:46:26;9.71;;;5.5;;
64022;SDS011;50264;52.088;5.296;2022-12-07T06:48:02;9.1;;;6.5;;
64022;SDS011;50264;52.088;5.296;2022-12-07T06:49:38;9.31;;;6.4;;
64022;SDS011;50264;52.088;5.296;2022-12-07T06:52:52;6.8;;;5.3;;
64022;SDS011;50264;52.088;5.296;2022-12-07T06:54:30;5.6;;;4.3;;
64022;SDS011;50264;52.088;5.296;2022-12-07T06:56:06;8.1;;;4.41;;
64022;SDS011;50264;52.088;5.296;2022-12-07T06:57:43;7.2;;;4.41;;
64022;SDS011;50264;52.088;5.296;2022-12-07T07:00:57;10.6;;;5.5;;
64022;SDS011;50264;52.088;5.296;2022-12-07T07:02:33;11.1;;;4.91;;
64022;SDS011;50264;52.088;5.296;2022-12-07T07:04:09;10.8;;;5.5;;
64022;SDS011;50264;52.088;5.296;2022-12-07T07:07:21;7.3;;;5.11;;
64022;SDS011;50264;52.088;5.296;2022-12-07T07:08:57;9.6;;;5.5;;
64022;SDS011;50264;52.088;5.296;2022-12-07T07:10:34;9.0;;;5.3;;
64022;SDS011;50264;52.088;5.296;2022-12-07T07:13:47;7.7;;;5.2;;
64022;SDS011;50264;52.088;5.296;2022-12-07T07:15:23;10.8;;;5.5;;
64022;SDS011;50264;52.088;5.296;2022-12-07T07:16:59;10.1;;;5.7;;
64022;SDS011;50264;52.088;5.296;2022-12-07T07:18:36;7.8;;;5.2;;
64022;SDS011;50264;52.088;5.296;2022-12-07T07:21:49;8.9;;;4.91;;
64022;SDS011;50264;52.088;5.296;2022-12-07T07:23:25;5.4;;;4.7;;
64022;SDS011;50264;52.088;5.296;2022-12-07T07:25:01;9.5;;;5.11;;
64022;SDS011;50264;52.088;5.296;2022-12-07T07:28:15;8.31;;;4.5;;
64022;SDS011;50264;52.088;5.296;2022-12-07T07:29:52;5.7;;;4.3;;
64022;SDS011;50264;52.088;5.296;2022-12-07T07:31:28;10.5;;;4.61;;
64022;SDS011;50264;52.088;5.296;2022-12-07T07:34:41;10.4;;;4.1;;
64022;SDS011;50264;52.088;5.296;2022-12-07T07:36:18;7.2;;;4.61;;
64022;SDS011;50264;52.088;5.296;2022-12-07T07:37:54;6.3;;;3.3;;
64022;SDS011;50264;52.088;5.296;2022-12-07T07:39:31;8.9;;;4.7;;
64022;SDS011;50264;52.088;5.296;2022-12-07T07:42:43;9.1;;;4.91;;
64022;SDS011;50264;52.088;5.296;2022-12-07T07:44:19;11.0;;;4.7;;
64022;SDS011;50264;52.088;5.296;2022-12-07T07:45:55;5.9;;;3.9;;
64022;SDS011;50264;52.088;5.296;2022-12-07T07:49:08;6.6;;;4.1;;
64022;SDS011;50264;52.088;5.296;2022-12-07T07:50:44;6.2;;;4.1;;
64022;SDS011;50264;52.088;5.296;2022-12-07T07:52:20;9.0;;;4.3;;
64022;SDS011;50264;52.088;5.296;2022-12-07T07:55:33;6.2;;;4.2;;
64022;SDS011;50264;52.088;5.296;2022-12-07T07:57:10;7.8;;;4.2;;
64022;SDS011;50264;52.088;5.296;2022-12-07T07:58:46;4.61;;;3.9;;
64022;SDS011;50264;52.088;5.296;2022-12-07T08:01:58;6.9;;;4.1;;
64022;SDS011;50264;52.088;5.296;2022-12-07T08:03:34;10.1;;;5.3;;
64022;SDS011;50264;52.088;5.296;2022-12-07T08:05:11;13.9;;;5.0;;
64022;SDS011;50264;52.088;5.296;2022-12-07T08:06:48;9.0;;;4.5;;
64022;SDS011;50264;52.088;5.296;2022-12-07T08:10:01;6.6;;;4.1;;
64022;SDS011;50264;52.088;5.296;2022-12-07T08:11:38;6.3;;;4.1;;
64022;SDS011;50264;52.088;5.296;2022-12-07T08:13:15;6.3;;;4.1;;
64022;SDS011;50264;52.088;5.296;2022-12-07T08:16:28;8.0;;;3.9;;
64022;SDS011;50264;52.088;5.296;2022-12-07T08:18:05;7.9;;;4.5;;
64022;SDS011;50264;52.088;5.296;2022-12-07T08:19:42;5.6;;;3.5;;
64022;SDS011;50264;52.088;5.296;2022-12-07T08:21:18;7.5;;;3.8;;
64022;SDS011;50264;52.088;5.296;2022-12-07T08:24:32;5.4;;;3.5;;
64022;SDS011;50264;52.088;5.296;2022-12-07T08:26:09;6.2;;;4.0;;
64022;SDS011;50264;52.088;5.296;2022-12-07T08:27:48;5.7;;;4.2;;
64022;SDS011;50264;52.088;5.296;2022-12-07T08:31:01;6.6;;;4.3;;
64022;SDS011;50264;52.088;5.296;2022-12-07T08:32:39;8.4;;;5.11;;
64022;SDS011;50264;52.088;5.296;2022-12-07T08:34:15;9.9;;;5.4;;
64022;SDS011;50264;52.088;5.296;2022-12-07T08:37:28;9.1;;;6.0;;
64022;SDS011;50264;52.088;5.296;2022-12-07T08:39:04;8.5;;;5.0;;
64022;SDS011;50264;52.088;5.296;2022-12-07T08:40:40;7.2;;;5.11;;
64022;SDS011;50264;52.088;5.296;2022-12-07T08:42:16;8.2;;;5.5;;
64022;SDS011;50264;52.088;5.296;2022-12-07T08:45:32;10.4;;;5.5;;
64022;SDS011;50264;52.088;5.296;2022-12-07T08:47:08;10.7;;;5.4;;
64022;SDS011;50264;52.088;5.296;2022-12-07T08:48:48;5.8;;;4.8;;
64022;SDS011;50264;52.088;5.296;2022-12-07T08:52:07;11.5;;;4.7;;
64022;SDS011;50264;52.088;5.296;2022-12-07T08:53:43;9.0;;;4.5;;
64022;SDS011;50264;52.088;5.296;2022-12-07T08:55:20;8.81;;;4.8;;
64022;SDS011;50264;52.088;5.296;2022-12-07T08:56:57;6.0;;;3.7;;
64022;SDS011;50264;52.088;5.296;2022-12-07T09:00:12;6.8;;;4.5;;
64022;SDS011;50264;52.088;5.296;2022-12-07T09:01:49;12.9;;;4.5;;
64022;SDS011;50264;52.088;5.296;2022-12-07T09:03:26;7.3;;;3.8;;
64022;SDS011;50264;52.088;5.296;2022-12-07T09:06:40;10.6;;;4.41;;
64022;SDS011;50264;52.088;5.296;2022-12-07T09:08:17;7.1;;;4.2;;
64022;SDS011;50264;52.088;5.296;2022-12-07T09:09:54;9.1;;;4.3;;
64022;SDS011;50264;52.088;5.296;2022-12-07T09:11:32;7.5;;;4.7;;
64022;SDS011;50264;52.088;5.296;2022-12-07T09:14:44;9.9;;;4.61;;
64022;SDS011;50264;52.088;5.296;2022-12-07T09:16:20;9.21;;;3.8;;
64022;SDS011;50264;52.088;5.296;2022-12-07T09:17:57;7.7;;;3.2;;
64022;SDS011;50264;52.088;5.296;2022-12-07T09:21:09;5.4;;;3.6;;
64022;SDS011;50264;52.088;5.296;2022-12-07T09:22:45;7.7;;;3.7;;
64022;SDS011;50264;52.088;5.296;2022-12-07T09:24:22;5.5;;;3.5;;
64022;SDS011;50264;52.088;5.296;2022-12-07T09:27:35;4.91;;;2.9;;
64022;SDS011;50264;52.088;5.296;2022-12-07T09:29:12;6.0;;;3.0;;
64022;SDS011;50264;52.088;5.296;2022-12-07T09:30:48;9.0;;;3.3;;
64022;SDS011;50264;52.088;5.296;2022-12-07T09:34:01;9.6;;;4.1;;
64022;SDS011;50264;52.088;5.296;2022-12-07T09:35:37;7.6;;;4.2;;
64022;SDS011;50264;52.088;5.296;2022-12-07T09:37:13;8.2;;;3.6;;
64022;SDS011;50264;52.088;5.296;2022-12-07T09:38:50;5.7;;;3.8;;
64022;SDS011;50264;52.088;5.296;2022-12-07T09:42:04;7.4;;;3.8;;
64022;SDS011;50264;52.088;5.296;2022-12-07T09:43:42;6.2;;;3.4;;
64022;SDS011;50264;52.088;5.296;2022-12-07T09:45:21;5.11;;;3.9;;
64022;SDS011;50264;52.088;5.296;2022-12-07T09:48:37;5.7;;;4.0;;
64022;SDS011;50264;52.088;5.296;2022-12-07T09:50:14;9.71;;;3.9;;
64022;SDS011;50264;52.088;5.296;2022-12-07T09:52:02;7.4;;;4.5;;
64022;SDS011;50264;52.088;5.296;2022-12-07T09:53:54;10.6;;;4.41;;
64022;SDS011;50264;52.088;5.296;2022-12-07T09:55:41;6.5;;;4.5;;
64022;SDS011;50264;52.088;5.296;2022-12-07T09:59:06;11.9;;;4.2;;
64022;SDS011;50264;52.088;5.296;2022-12-07T10:00:50;7.6;;;3.8;;
64022;SDS011;50264;52.088;5.296;2022-12-07T10:02:34;5.0;;;3.0;;
64022;SDS011;50264;52.088;5.296;2022-12-07T10:04:13;5.8;;;3.4;;
64022;SDS011;50264;52.088;5.296;2022-12-07T10:07:30;10.0;;;3.6;;
64022;SDS011;50264;52.088;5.296;2022-12-07T10:09:09;7.8;;;3.7;;
64022;SDS011;50264;52.088;5.296;2022-12-07T10:10:48;6.0;;;3.3;;
64022;SDS011;50264;52.088;5.296;2022-12-07T10:12:28;13.2;;;4.1;;
64022;SDS011;50264;52.088;5.296;2022-12-07T10:15:49;9.31;;;4.1;;
64022;SDS011;50264;52.088;5.296;2022-12-07T10:17:31;6.5;;;3.8;;
64022;SDS011;50264;52.088;5.296;2022-12-07T10:19:19;5.3;;;3.6;;
64022;SDS011;50264;52.088;5.296;2022-12-07T10:21:00;7.7;;;3.3;;
64022;SDS011;50264;52.088;5.296;2022-12-07T10:22:50;11.5;;;3.5;;
64022;SDS011;50264;52.088;5.296;2022-12-07T10:26:40;6.7;;;3.3;;
64022;SDS011;50264;52.088;5.296;2022-12-07T10:28:32;9.4;;;3.6;;
64022;SDS011;50264;52.088;5.296;2022-12-07T10:30:12;6.2;;;3.4;;
64022;SDS011;50264;52.088;5.296;2022-12-07T10:31:58;5.9;;;3.2;;
64022;SDS011;50264;52.088;5.296;2022-12-07T10:33:41;7.6;;;4.2;;
64022;SDS011;50264;52.088;5.296;2022-12-07T10:35:26;9.5;;;3.6;;
64022;SDS011;50264;52.088;5.296;2022-12-07T10:38:58;7.0;;;3.4;;
64022;SDS011;50264;52.088;5.296;2022-12-07T10:40:38;10.1;;;4.2;;
64022;SDS011;50264;52.088;5.296;2022-12-07T10:42:16;7.6;;;3.9;;
64022;SDS011;50264;52.088;5.296;2022-12-07T10:43:55;9.81;;;4.61;;
64022;SDS011;50264;52.088;5.296;2022-12-07T10:47:22;7.8;;;3.0;;
64022;SDS011;50264;52.088;5.296;2022-12-07T10:49:10;8.31;;;3.3;;
64022;SDS011;50264;52.088;5.296;2022-12-07T10:52:26;6.2;;;3.5;;
64022;SDS011;50264;52.088;5.296;2022-12-07T10:54:20;9.9;;;3.2;;
64022;SDS011;50264;52.088;5.296;2022-12-07T10:56:18;8.2;;;3.7;;
64022;SDS011;50264;52.088;5.296;2022-12-07T10:58:24;7.5;;;3.8;;
64022;SDS011;50264;52.088;5.296;2022-12-07T11:01:57;6.1;;;3.5;;
64022;SDS011;50264;52.088;5.296;2022-12-07T11:05:53;6.4;;;3.3;;
64022;SDS011;50264;52.088;5.296;2022-12-07T11:07:42;4.3;;;3.2;;
64022;SDS011;50264;52.088;5.296;2022-12-07T11:09:36;7.7;;;2.4;;
64022;SDS011;50264;52.088;5.296;2022-12-07T11:11:44;4.1;;;2.21;;
64022;SDS011;50264;52.088;5.296;2022-12-07T11:13:32;5.4;;;2.31;;
64022;SDS011;50264;52.088;5.296;2022-12-07T11:15:21;7.7;;;2.1;;
64022;SDS011;50264;52.088;5.296;2022-12-07T11:18:51;7.9;;;2.4;;
64022;SDS011;50264;52.088;5.296;2022-12-07T11:20:42;5.8;;;2.31;;
64022;SDS011;50264;52.088;5.296;2022-12-07T11:22:27;9.31;;;2.5;;
64022;SDS011;50264;52.088;5.296;2022-12-07T11:24:14;5.2;;;2.31;;
64022;SDS011;50264;52.088;5.296;2022-12-07T11:25:54;6.1;;;1.7;;
64022;SDS011;50264;52.088;5.296;2022-12-07T11:27:43;6.3;;;1.8;;
64022;SDS011;50264;52.088;5.296;2022-12-07T11:31:31;5.8;;;2.21;;
64022;SDS011;50264;52.088;5.296;2022-12-07T11:33:29;5.6;;;2.21;;
64022;SDS011;50264;52.088;5.296;2022-12-07T11:35:17;8.5;;;2.1;;
64022;SDS011;50264;52.088;5.296;2022-12-07T11:37:08;7.8;;;2.1;;
64022;SDS011;50264;52.088;5.296;2022-12-07T11:38:50;9.4;;;2.4;;
64022;SDS011;50264;52.088;5.296;2022-12-07T11:40:30;9.9;;;2.21;;
64022;SDS011;50264;52.088;5.296;2022-12-07T11:42:12;6.7;;;2.31;;
64022;SDS011;50264;52.088;5.296;2022-12-07T11:45:41;6.3;;;2.31;;
64022;SDS011;50264;52.088;5.296;2022-12-07T11:47:23;6.9;;;2.4;;
64022;SDS011;50264;52.088;5.296;2022-12-07T11:49:08;7.7;;;1.8;;
64022;SDS011;50264;52.088;5.296;2022-12-07T11:50:51;7.7;;;1.8;;
64022;SDS011;50264;52.088;5.296;2022-12-07T11:54:25;5.4;;;2.0;;
64022;SDS011;50264;52.088;5.296;2022-12-07T11:56:08;9.4;;;2.1;;
64022;SDS011;50264;52.088;5.296;2022-12-07T11:57:49;7.5;;;2.0;;
64022;SDS011;50264;52.088;5.296;2022-12-07T11:59:37;4.8;;;1.8;;
64022;SDS011;50264;52.088;5.296;2022-12-07T12:01:25;3.8;;;1.6;;
64022;SDS011;50264;52.088;5.296;2022-12-07T12:03:24;4.0;;;2.1;;
64022;SDS011;50264;52.088;5.296;2022-12-07T12:06:53;9.9;;;2.0;;
64022;SDS011;50264;52.088;5.296;2022-12-07T12:08:30;5.7;;;1.8;;
64022;SDS011;50264;52.088;5.296;2022-12-07T12:10:15;12.2;;;2.31;;
64022;SDS011;50264;52.088;5.296;2022-12-07T12:12:02;9.81;;;2.6;;
64022;SDS011;50264;52.088;5.296;2022-12-07T12:14:00;10.6;;;2.1;;
64022;SDS011;50264;52.088;5.296;2022-12-07T12:16:01;5.2;;;2.0;;
64022;SDS011;50264;52.088;5.296;2022-12-07T12:17:56;7.3;;;1.9;;
64022;SDS011;50264;52.088;5.296;2022-12-07T12:21:01;8.0;;;2.1;;
64022;SDS011;50264;52.088;5.296;2022-12-07T12:22:45;7.2;;;1.9;;
64022;SDS011;50264;52.088;5.296;2022-12-07T12:24:26;4.61;;;1.6;;
64022;SDS011;50264;52.088;5.296;2022-12-07T12:26:08;5.5;;;1.8;;
64022;SDS011;50264;52.088;5.296;2022-12-07T12:29:33;7.1;;;2.0;;
64022;SDS011;50264;52.088;5.296;2022-12-07T12:31:13;8.9;;;2.0;;
64022;SDS011;50264;52.088;5.296;2022-12-07T12:32:51;8.81;;;1.8;;
64022;SDS011;50264;52.088;5.296;2022-12-07T12:34:31;8.6;;;2.1;;
64022;SDS011;50264;52.088;5.296;2022-12-07T12:38:31;9.0;;;2.31;;
64022;SDS011;50264;52.088;5.296;2022-12-07T12:40:42;5.7;;;2.0;;
64022;SDS011;50264;52.088;5.296;2022-12-07T12:42:19;3.8;;;1.7;;
64022;SDS011;50264;52.088;5.296;2022-12-07T12:43:55;4.2;;;1.8;;
64022;SDS011;50264;52.088;5.296;2022-12-07T12:45:32;4.61;;;2.0;;
64022;SDS011;50264;52.088;5.296;2022-12-07T12:48:26;6.8;;;2.1;;
64022;SDS011;50264;52.088;5.296;2022-12-07T12:50:22;5.7;;;1.8;;
64022;SDS011;50264;52.088;5.296;2022-12-07T12:53:21;8.5;;;1.5;;
64022;SDS011;50264;52.088;5.296;2022-12-07T12:56:13;6.6;;;1.8;;
64022;SDS011;50264;52.088;5.296;2022-12-07T12:58:32;7.7;;;1.8;;
64022;SDS011;50264;52.088;5.296;2022-12-07T13:00:23;9.9;;;2.21;;